BAW8648 LTFJ-LGAV
Flight info
| Callsign | BAW8648 |
|---|---|
| Flight time | N/A |
| Altitude | 34000 |
| Route | IVGUS1W IVGUS UY226 BIG UN604 OGSIL OGSIL1Q |
| Aircraft | A21N/M-SDE3FGIJ1LRWXYZ/SB1G1 |
Departure
| Time | 2026-04-28 01:29 |
|---|---|
| Airport | Istanbul Sabiha Gökçen International Airport (LTFJ) |
Arrival
| Time | N/A |
|---|---|
| Airport | Athens Eleftherios Venizelos International Airport (LGAV) |
| Time | Latitude | Longitude | Altitude | Speed | Heading |
|---|---|---|---|---|---|
| 2026-04-28 01:02 | 40.90597 | 29.31561 | 326 ft | 0 kts | 333° |
| 2026-04-28 01:16 | 40.90587 | 29.31568 | 323 ft | 4 kts | 334° |
| 2026-04-28 01:17 | 40.90563 | 29.31583 | 324 ft | 4 kts | 332° |
| 2026-04-28 01:17 | 40.90541 | 29.31603 | 326 ft | 4 kts | 313° |
| 2026-04-28 01:17 | 40.90528 | 29.31632 | 326 ft | 4 kts | 278° |
| 2026-04-28 01:17 | 40.90530 | 29.31657 | 325 ft | 1 kts | 244° |
| 2026-04-28 01:18 | 40.90532 | 29.31661 | 325 ft | 0 kts | 244° |
| 2026-04-28 01:21 | 40.90531 | 29.31657 | 325 ft | 2 kts | 244° |
| 2026-04-28 01:21 | 40.90522 | 29.31635 | 323 ft | 4 kts | 244° |
| 2026-04-28 01:22 | 40.90506 | 29.31592 | 323 ft | 6 kts | 244° |
| 2026-04-28 01:22 | 40.90483 | 29.31528 | 326 ft | 9 kts | 244° |
| 2026-04-28 01:22 | 40.90454 | 29.31450 | 323 ft | 9 kts | 244° |
| 2026-04-28 01:22 | 40.90404 | 29.31442 | 325 ft | 9 kts | 153° |
| 2026-04-28 01:23 | 40.90340 | 29.31484 | 324 ft | 11 kts | 154° |
| 2026-04-28 01:23 | 40.90284 | 29.31495 | 324 ft | 9 kts | 213° |
| 2026-04-28 01:23 | 40.90247 | 29.31413 | 324 ft | 12 kts | 244° |
| 2026-04-28 01:23 | 40.90208 | 29.31309 | 325 ft | 14 kts | 244° |
| 2026-04-28 01:24 | 40.90164 | 29.31190 | 323 ft | 15 kts | 244° |
| 2026-04-28 01:24 | 40.90115 | 29.31055 | 326 ft | 17 kts | 244° |
| 2026-04-28 01:24 | 40.90061 | 29.30908 | 324 ft | 19 kts | 244° |
| 2026-04-28 01:24 | 40.90002 | 29.30747 | 324 ft | 20 kts | 244° |
| 2026-04-28 01:25 | 40.89938 | 29.30573 | 323 ft | 21 kts | 244° |
| 2026-04-28 01:25 | 40.89882 | 29.30421 | 324 ft | 19 kts | 244° |
| 2026-04-28 01:25 | 40.89822 | 29.30258 | 324 ft | 20 kts | 244° |
| 2026-04-28 01:25 | 40.89757 | 29.30083 | 326 ft | 22 kts | 244° |
| 2026-04-28 01:26 | 40.89705 | 29.29940 | 323 ft | 17 kts | 244° |
| 2026-04-28 01:26 | 40.89651 | 29.29792 | 325 ft | 19 kts | 244° |
| 2026-04-28 01:26 | 40.89591 | 29.29630 | 326 ft | 20 kts | 244° |
| 2026-04-28 01:26 | 40.89528 | 29.29460 | 325 ft | 20 kts | 244° |
| 2026-04-28 01:27 | 40.89485 | 29.29342 | 325 ft | 9 kts | 243° |
| 2026-04-28 01:27 | 40.89451 | 29.29268 | 325 ft | 9 kts | 222° |
| 2026-04-28 01:27 | 40.89391 | 29.29253 | 326 ft | 10 kts | 161° |
| 2026-04-28 01:27 | 40.89321 | 29.29298 | 325 ft | 12 kts | 154° |
| 2026-04-28 01:28 | 40.89284 | 29.29361 | 324 ft | 9 kts | 77° |
| 2026-04-28 01:28 | 40.89315 | 29.29450 | 325 ft | 15 kts | 64° |
| 2026-04-28 01:28 | 40.89458 | 29.29839 | 325 ft | 82 kts | 63° |
| 2026-04-28 01:28 | 40.89799 | 29.30764 | 325 ft | 140 kts | 64° |
| 2026-04-28 01:29 | 40.90274 | 29.32068 | 514 ft | 163 kts | 64° |
| 2026-04-28 01:29 | 40.90765 | 29.33398 | 1168 ft | 160 kts | 64° |
| 2026-04-28 01:29 | 40.91244 | 29.34735 | 1722 ft | 167 kts | 64° |
| 2026-04-28 01:29 | 40.91781 | 29.36201 | 2160 ft | 187 kts | 63° |
| 2026-04-28 01:30 | 40.92392 | 29.37881 | 2559 ft | 218 kts | 65° |
| 2026-04-28 01:30 | 40.92861 | 29.39895 | 3143 ft | 238 kts | 84° |
| 2026-04-28 01:30 | 40.92637 | 29.42090 | 4002 ft | 247 kts | 110° |
| 2026-04-28 01:30 | 40.91630 | 29.43993 | 4761 ft | 261 kts | 139° |
| 2026-04-28 01:31 | 40.90043 | 29.45218 | 5628 ft | 268 kts | 154° |
| 2026-04-28 01:31 | 40.88326 | 29.46231 | 6512 ft | 273 kts | 155° |
| 2026-04-28 01:31 | 40.86581 | 29.47269 | 7400 ft | 277 kts | 155° |
| 2026-04-28 01:31 | 40.84735 | 29.48066 | 8283 ft | 283 kts | 173° |
| 2026-04-28 01:32 | 40.82780 | 29.47808 | 9147 ft | 287 kts | 200° |
| 2026-04-28 01:32 | 40.81088 | 29.46411 | 10026 ft | 290 kts | 222° |
| 2026-04-28 01:32 | 40.79595 | 29.44539 | 10638 ft | 307 kts | 225° |
| 2026-04-28 01:32 | 40.78007 | 29.42497 | 11005 ft | 330 kts | 225° |
| 2026-04-28 01:33 | 40.76301 | 29.40352 | 11485 ft | 346 kts | 224° |
| 2026-04-28 01:33 | 40.74550 | 29.38189 | 12269 ft | 351 kts | 224° |
| 2026-04-28 01:33 | 40.72772 | 29.35967 | 13109 ft | 353 kts | 227° |
| 2026-04-28 01:33 | 40.71343 | 29.33333 | 13903 ft | 355 kts | 244° |
| 2026-04-28 01:34 | 40.70637 | 29.30218 | 14671 ft | 357 kts | 263° |
| 2026-04-28 01:34 | 40.70772 | 29.26943 | 15400 ft | 361 kts | 282° |
| 2026-04-28 01:34 | 40.71509 | 29.23762 | 16131 ft | 365 kts | 288° |
| 2026-04-28 01:34 | 40.72342 | 29.20583 | 16839 ft | 368 kts | 288° |
| 2026-04-28 01:35 | 40.73161 | 29.17372 | 17524 ft | 371 kts | 288° |
| 2026-04-28 01:35 | 40.73966 | 29.14124 | 18171 ft | 374 kts | 287° |
| 2026-04-28 01:35 | 40.74767 | 29.10837 | 18811 ft | 377 kts | 287° |
| 2026-04-28 01:35 | 40.75571 | 29.07526 | 19425 ft | 380 kts | 287° |
| 2026-04-28 01:36 | 40.76375 | 29.04187 | 20014 ft | 384 kts | 287° |
| 2026-04-28 01:36 | 40.77041 | 29.00770 | 20580 ft | 386 kts | 278° |
| 2026-04-28 01:36 | 40.77316 | 28.97234 | 21138 ft | 389 kts | 274° |
| 2026-04-28 01:36 | 40.77512 | 28.93664 | 21700 ft | 392 kts | 274° |
| 2026-04-28 01:37 | 40.77707 | 28.90060 | 22233 ft | 395 kts | 274° |
| 2026-04-28 01:37 | 40.77908 | 28.86440 | 22778 ft | 397 kts | 274° |
| 2026-04-28 01:37 | 40.78115 | 28.82784 | 23290 ft | 400 kts | 274° |
| 2026-04-28 01:37 | 40.78321 | 28.79154 | 23786 ft | 403 kts | 274° |
| 2026-04-28 01:38 | 40.78530 | 28.75450 | 24295 ft | 406 kts | 274° |
| 2026-04-28 01:38 | 40.78742 | 28.71725 | 24788 ft | 409 kts | 274° |
| 2026-04-28 01:38 | 40.78953 | 28.67975 | 25268 ft | 411 kts | 274° |
| 2026-04-28 01:38 | 40.79168 | 28.64151 | 25745 ft | 413 kts | 274° |
| 2026-04-28 01:39 | 40.79368 | 28.60407 | 26197 ft | 416 kts | 272° |
| 2026-04-28 01:39 | 40.79350 | 28.56577 | 26629 ft | 418 kts | 268° |
| 2026-04-28 01:39 | 40.79219 | 28.52735 | 27065 ft | 420 kts | 267° |
| 2026-04-28 01:39 | 40.79125 | 28.50170 | 27347 ft | 421 kts | 267° |
| 2026-04-28 01:40 | 40.78934 | 28.44991 | 27880 ft | 424 kts | 267° |
| 2026-04-28 01:40 | 40.78791 | 28.41089 | 28280 ft | 426 kts | 267° |
| 2026-04-28 01:40 | 40.78649 | 28.37160 | 28658 ft | 428 kts | 267° |
| 2026-04-28 01:40 | 40.78506 | 28.33230 | 29055 ft | 429 kts | 267° |
| 2026-04-28 01:41 | 40.78361 | 28.29313 | 29537 ft | 427 kts | 267° |
| 2026-04-28 01:41 | 40.78230 | 28.25405 | 30023 ft | 425 kts | 269° |
| 2026-04-28 01:41 | 40.78300 | 28.21507 | 30488 ft | 424 kts | 272° |
| 2026-04-28 01:41 | 40.78429 | 28.17678 | 30934 ft | 422 kts | 272° |
| 2026-04-28 01:42 | 40.78563 | 28.13817 | 31364 ft | 421 kts | 272° |
| 2026-04-28 01:42 | 40.78652 | 28.11211 | 31649 ft | 420 kts | 272° |
| 2026-04-28 01:42 | 40.78782 | 28.07375 | 32074 ft | 419 kts | 272° |
| 2026-04-28 01:42 | 40.78950 | 28.02297 | 32610 ft | 417 kts | 272° |
| 2026-04-28 01:43 | 40.79075 | 27.98484 | 32987 ft | 415 kts | 272° |
| 2026-04-28 01:43 | 40.79198 | 27.94687 | 33372 ft | 414 kts | 272° |
| 2026-04-28 01:43 | 40.79280 | 27.92124 | 33621 ft | 413 kts | 272° |
| 2026-04-28 01:43 | 40.79395 | 27.88342 | 33977 ft | 411 kts | 271° |
| 2026-04-28 01:44 | 40.79427 | 27.84607 | 34166 ft | 413 kts | 268° |
| 2026-04-28 01:44 | 40.79098 | 27.80848 | 34191 ft | 414 kts | 258° |
| 2026-04-28 01:44 | 40.78199 | 27.77243 | 34184 ft | 416 kts | 247° |
| 2026-04-28 01:44 | 40.76737 | 27.73939 | 34176 ft | 419 kts | 236° |
| 2026-04-28 01:45 | 40.74777 | 27.71094 | 34172 ft | 422 kts | 224° |
| 2026-04-28 01:45 | 40.72380 | 27.68818 | 34173 ft | 427 kts | 213° |
| 2026-04-28 01:45 | 40.67137 | 27.65085 | 34164 ft | 428 kts | 211° |
| 2026-04-28 01:46 | 40.61891 | 27.61364 | 34162 ft | 428 kts | 212° |
| 2026-04-28 01:46 | 40.56683 | 27.57618 | 34160 ft | 426 kts | 213° |
| 2026-04-28 01:47 | 40.51527 | 27.53763 | 34161 ft | 426 kts | 213° |
| 2026-04-28 01:47 | 40.46378 | 27.49910 | 34160 ft | 426 kts | 213° |
| 2026-04-28 01:48 | 40.41215 | 27.46060 | 34152 ft | 426 kts | 213° |
| 2026-04-28 01:48 | 40.36054 | 27.42215 | 34150 ft | 426 kts | 213° |
| 2026-04-28 01:49 | 40.30891 | 27.38376 | 34152 ft | 426 kts | 213° |
| 2026-04-28 01:49 | 40.25884 | 27.34260 | 34153 ft | 424 kts | 218° |
| 2026-04-28 01:50 | 40.21117 | 27.29805 | 34143 ft | 424 kts | 219° |
| 2026-04-28 01:50 | 40.16299 | 27.25343 | 34139 ft | 424 kts | 218° |
| 2026-04-28 01:51 | 40.11478 | 27.20899 | 34138 ft | 424 kts | 218° |
| 2026-04-28 01:51 | 40.06649 | 27.16469 | 34139 ft | 424 kts | 218° |
| 2026-04-28 01:52 | 40.01819 | 27.12036 | 34141 ft | 424 kts | 218° |
| 2026-04-28 01:52 | 39.96981 | 27.07605 | 34140 ft | 426 kts | 218° |
| 2026-04-28 01:53 | 39.92150 | 27.03193 | 34141 ft | 427 kts | 218° |
| 2026-04-28 01:53 | 39.87279 | 26.98743 | 34133 ft | 427 kts | 218° |
| 2026-04-28 01:54 | 39.82411 | 26.94292 | 34126 ft | 427 kts | 218° |
| 2026-04-28 01:54 | 39.77540 | 26.89853 | 34120 ft | 427 kts | 218° |
| 2026-04-28 01:55 | 39.72656 | 26.85440 | 34123 ft | 428 kts | 218° |
| 2026-04-28 01:55 | 39.67777 | 26.81024 | 34121 ft | 428 kts | 218° |
| 2026-04-28 01:56 | 39.62924 | 26.76634 | 34122 ft | 428 kts | 218° |
| 2026-04-28 01:56 | 39.58045 | 26.72215 | 34118 ft | 428 kts | 218° |
| 2026-04-28 01:57 | 39.53160 | 26.67806 | 34121 ft | 428 kts | 218° |
| 2026-04-28 01:57 | 39.48264 | 26.63410 | 34112 ft | 429 kts | 218° |
| 2026-04-28 01:58 | 39.43359 | 26.59020 | 34110 ft | 429 kts | 218° |
| 2026-04-28 01:58 | 39.38445 | 26.54618 | 34105 ft | 429 kts | 218° |
| 2026-04-28 01:59 | 39.33533 | 26.50244 | 34099 ft | 430 kts | 216° |
| 2026-04-28 01:59 | 39.28349 | 26.46347 | 34101 ft | 431 kts | 213° |
| 2026-04-28 02:00 | 39.23273 | 26.42257 | 34088 ft | 427 kts | 223° |
| 2026-04-28 02:00 | 39.19353 | 26.36606 | 34094 ft | 423 kts | 234° |
| 2026-04-28 02:01 | 39.15709 | 26.30663 | 34092 ft | 423 kts | 234° |
| 2026-04-28 02:01 | 39.12061 | 26.24790 | 34090 ft | 422 kts | 234° |
| 2026-04-28 02:02 | 39.08367 | 26.18881 | 34088 ft | 423 kts | 233° |
| 2026-04-28 02:02 | 39.04661 | 26.12978 | 34091 ft | 424 kts | 233° |
| 2026-04-28 02:03 | 39.00954 | 26.07077 | 34086 ft | 424 kts | 233° |
| 2026-04-28 02:03 | 38.97243 | 26.01181 | 34093 ft | 424 kts | 233° |
| 2026-04-28 02:04 | 38.93527 | 25.95286 | 34092 ft | 425 kts | 233° |
| 2026-04-28 02:04 | 38.89803 | 25.89393 | 34090 ft | 425 kts | 233° |
| 2026-04-28 02:05 | 38.86102 | 25.83545 | 34092 ft | 425 kts | 233° |
| 2026-04-28 02:05 | 38.82372 | 25.77658 | 34090 ft | 425 kts | 233° |
| 2026-04-28 02:06 | 38.78632 | 25.71775 | 34090 ft | 425 kts | 233° |
| 2026-04-28 02:06 | 38.74899 | 25.65905 | 34090 ft | 425 kts | 233° |
| 2026-04-28 02:07 | 38.71157 | 25.60036 | 34085 ft | 425 kts | 233° |
| 2026-04-28 02:07 | 38.67410 | 25.54170 | 34088 ft | 426 kts | 233° |
| 2026-04-28 02:08 | 38.63682 | 25.48340 | 34096 ft | 426 kts | 233° |
| 2026-04-28 02:08 | 38.59924 | 25.42479 | 34089 ft | 426 kts | 233° |
| 2026-04-28 02:09 | 38.56170 | 25.36631 | 34093 ft | 426 kts | 233° |
| 2026-04-28 02:09 | 38.52413 | 25.30795 | 34088 ft | 422 kts | 233° |
| 2026-04-28 02:10 | 38.48708 | 25.25048 | 34068 ft | 414 kts | 233° |
| 2026-04-28 02:10 | 38.46878 | 25.22209 | 33742 ft | 418 kts | 233° |
| 2026-04-28 02:10 | 38.45017 | 25.19328 | 33473 ft | 422 kts | 233° |
| 2026-04-28 02:11 | 38.43141 | 25.16428 | 33220 ft | 424 kts | 233° |
| 2026-04-28 02:11 | 38.41264 | 25.13528 | 32963 ft | 425 kts | 233° |
| 2026-04-28 02:11 | 38.39377 | 25.10613 | 32719 ft | 426 kts | 233° |
| 2026-04-28 02:11 | 38.37489 | 25.07697 | 32469 ft | 427 kts | 233° |
| 2026-04-28 02:12 | 38.35600 | 25.04781 | 32219 ft | 427 kts | 233° |
| 2026-04-28 02:12 | 38.33703 | 25.01858 | 31945 ft | 428 kts | 233° |
| 2026-04-28 02:12 | 38.31814 | 24.98955 | 31443 ft | 424 kts | 232° |
| 2026-04-28 02:12 | 38.29933 | 24.96065 | 30873 ft | 422 kts | 232° |
| 2026-04-28 02:13 | 38.28067 | 24.93199 | 30300 ft | 420 kts | 232° |
| 2026-04-28 02:13 | 38.26203 | 24.90334 | 29717 ft | 418 kts | 232° |
| 2026-04-28 02:13 | 38.24977 | 24.88450 | 29327 ft | 418 kts | 232° |